sensor_id;sensor_type;location;lat;lon;timestamp;P1;durP1;ratioP1;P2;durP2;ratioP2
59127;SDS011;44912;52.754;5.994;2023-08-24T00:00:44;10.43;;;6.65;;
59127;SDS011;44912;52.754;5.994;2023-08-24T00:03:10;11.15;;;6.82;;
59127;SDS011;44912;52.754;5.994;2023-08-24T00:05:36;10.55;;;7.05;;
59127;SDS011;44912;52.754;5.994;2023-08-24T00:08:03;10.77;;;7.00;;
59127;SDS011;44912;52.754;5.994;2023-08-24T00:13:02;10.95;;;7.07;;
59127;SDS011;44912;52.754;5.994;2023-08-24T00:15:29;10.43;;;6.95;;
59127;SDS011;44912;52.754;5.994;2023-08-24T00:17:55;12.20;;;7.20;;
59127;SDS011;44912;52.754;5.994;2023-08-24T00:20:20;11.65;;;7.50;;
59127;SDS011;44912;52.754;5.994;2023-08-24T00:22:46;11.88;;;7.57;;
59127;SDS011;44912;52.754;5.994;2023-08-24T00:25:12;8.75;;;6.45;;
59127;SDS011;44912;52.754;5.994;2023-08-24T00:27:38;9.77;;;6.40;;
59127;SDS011;44912;52.754;5.994;2023-08-24T00:30:04;11.73;;;7.20;;
59127;SDS011;44912;52.754;5.994;2023-08-24T00:32:31;10.07;;;6.70;;
59127;SDS011;44912;52.754;5.994;2023-08-24T00:35:03;11.10;;;6.55;;
59127;SDS011;44912;52.754;5.994;2023-08-24T00:37:33;11.45;;;7.28;;
59127;SDS011;44912;52.754;5.994;2023-08-24T00:39:59;10.73;;;7.22;;
59127;SDS011;44912;52.754;5.994;2023-08-24T00:42:29;11.25;;;7.43;;
59127;SDS011;44912;52.754;5.994;2023-08-24T00:44:54;12.85;;;7.65;;
59127;SDS011;44912;52.754;5.994;2023-08-24T00:47:20;11.88;;;6.95;;
59127;SDS011;44912;52.754;5.994;2023-08-24T00:49:46;9.60;;;7.53;;
59127;SDS011;44912;52.754;5.994;2023-08-24T00:52:12;11.82;;;7.75;;
59127;SDS011;44912;52.754;5.994;2023-08-24T00:54:38;15.52;;;8.23;;
59127;SDS011;44912;52.754;5.994;2023-08-24T00:57:06;12.25;;;7.68;;
59127;SDS011;44912;52.754;5.994;2023-08-24T00:59:32;11.85;;;7.22;;
59127;SDS011;44912;52.754;5.994;2023-08-24T01:01:59;12.48;;;7.90;;
59127;SDS011;44912;52.754;5.994;2023-08-24T01:04:25;12.15;;;7.68;;
59127;SDS011;44912;52.754;5.994;2023-08-24T01:06:51;11.45;;;6.65;;
59127;SDS011;44912;52.754;5.994;2023-08-24T01:09:17;12.07;;;6.95;;
59127;SDS011;44912;52.754;5.994;2023-08-24T01:14:35;13.40;;;6.85;;
59127;SDS011;44912;52.754;5.994;2023-08-24T01:17:07;12.00;;;6.63;;
59127;SDS011;44912;52.754;5.994;2023-08-24T01:19:39;12.65;;;6.85;;
59127;SDS011;44912;52.754;5.994;2023-08-24T01:25:11;11.70;;;6.60;;
59127;SDS011;44912;52.754;5.994;2023-08-24T01:27:41;11.63;;;6.55;;
59127;SDS011;44912;52.754;5.994;2023-08-24T01:30:08;11.52;;;6.13;;
59127;SDS011;44912;52.754;5.994;2023-08-24T01:32:34;12.13;;;6.15;;
59127;SDS011;44912;52.754;5.994;2023-08-24T01:35:03;10.75;;;6.47;;
59127;SDS011;44912;52.754;5.994;2023-08-24T01:37:30;9.27;;;5.25;;
59127;SDS011;44912;52.754;5.994;2023-08-24T01:40:03;9.48;;;5.88;;
59127;SDS011;44912;52.754;5.994;2023-08-24T01:42:34;9.80;;;6.60;;
59127;SDS011;44912;52.754;5.994;2023-08-24T01:45:04;9.65;;;6.10;;
59127;SDS011;44912;52.754;5.994;2023-08-24T01:47:33;9.82;;;6.25;;
59127;SDS011;44912;52.754;5.994;2023-08-24T01:50:00;10.38;;;6.38;;
59127;SDS011;44912;52.754;5.994;2023-08-24T01:52:26;12.57;;;6.50;;
59127;SDS011;44912;52.754;5.994;2023-08-24T01:54:52;9.48;;;5.95;;
59127;SDS011;44912;52.754;5.994;2023-08-24T01:57:18;9.80;;;5.43;;
59127;SDS011;44912;52.754;5.994;2023-08-24T01:59:44;12.10;;;5.80;;
59127;SDS011;44912;52.754;5.994;2023-08-24T02:02:09;9.95;;;6.00;;
59127;SDS011;44912;52.754;5.994;2023-08-24T02:04:35;10.35;;;5.82;;
59127;SDS011;44912;52.754;5.994;2023-08-24T02:07:00;11.73;;;6.28;;
59127;SDS011;44912;52.754;5.994;2023-08-24T02:09:26;10.60;;;6.32;;
59127;SDS011;44912;52.754;5.994;2023-08-24T02:11:51;10.43;;;6.13;;
59127;SDS011;44912;52.754;5.994;2023-08-24T02:14:17;14.15;;;5.63;;
59127;SDS011;44912;52.754;5.994;2023-08-24T02:16:42;10.43;;;6.10;;
59127;SDS011;44912;52.754;5.994;2023-08-24T02:19:07;12.02;;;6.25;;
59127;SDS011;44912;52.754;5.994;2023-08-24T02:21:35;9.27;;;6.55;;
59127;SDS011;44912;52.754;5.994;2023-08-24T02:24:01;10.63;;;6.80;;
59127;SDS011;44912;52.754;5.994;2023-08-24T02:26:27;10.50;;;6.55;;
59127;SDS011;44912;52.754;5.994;2023-08-24T02:28:53;12.15;;;6.72;;
59127;SDS011;44912;52.754;5.994;2023-08-24T02:31:18;9.80;;;6.88;;
59127;SDS011;44912;52.754;5.994;2023-08-24T02:33:44;11.80;;;6.70;;
59127;SDS011;44912;52.754;5.994;2023-08-24T02:36:09;11.75;;;6.10;;
59127;SDS011;44912;52.754;5.994;2023-08-24T02:38:35;11.10;;;6.38;;
59127;SDS011;44912;52.754;5.994;2023-08-24T02:41:01;12.85;;;6.53;;
59127;SDS011;44912;52.754;5.994;2023-08-24T02:43:31;12.07;;;6.90;;
59127;SDS011;44912;52.754;5.994;2023-08-24T02:46:03;14.90;;;7.40;;
59127;SDS011;44912;52.754;5.994;2023-08-24T02:48:30;10.50;;;6.63;;
59127;SDS011;44912;52.754;5.994;2023-08-24T02:50:59;10.73;;;6.70;;
59127;SDS011;44912;52.754;5.994;2023-08-24T02:53:26;14.82;;;7.15;;
59127;SDS011;44912;52.754;5.994;2023-08-24T02:55:52;12.90;;;6.45;;
59127;SDS011;44912;52.754;5.994;2023-08-24T02:58:20;11.00;;;6.43;;
59127;SDS011;44912;52.754;5.994;2023-08-24T03:00:46;10.20;;;6.82;;
59127;SDS011;44912;52.754;5.994;2023-08-24T03:03:13;13.25;;;7.50;;
59127;SDS011;44912;52.754;5.994;2023-08-24T03:05:39;9.85;;;6.93;;
59127;SDS011;44912;52.754;5.994;2023-08-24T03:08:05;11.18;;;6.18;;
59127;SDS011;44912;52.754;5.994;2023-08-24T03:10:31;10.50;;;6.53;;
59127;SDS011;44912;52.754;5.994;2023-08-24T03:13:00;11.32;;;7.43;;
59127;SDS011;44912;52.754;5.994;2023-08-24T03:15:25;11.50;;;7.50;;
59127;SDS011;44912;52.754;5.994;2023-08-24T03:17:51;11.15;;;7.10;;
59127;SDS011;44912;52.754;5.994;2023-08-24T03:20:17;9.75;;;6.70;;
59127;SDS011;44912;52.754;5.994;2023-08-24T03:22:43;10.90;;;6.88;;
59127;SDS011;44912;52.754;5.994;2023-08-24T03:25:09;12.40;;;7.03;;
59127;SDS011;44912;52.754;5.994;2023-08-24T03:27:34;11.25;;;6.78;;
59127;SDS011;44912;52.754;5.994;2023-08-24T03:30:00;10.57;;;7.18;;
59127;SDS011;44912;52.754;5.994;2023-08-24T03:32:27;10.48;;;7.07;;
59127;SDS011;44912;52.754;5.994;2023-08-24T03:34:57;13.63;;;6.82;;
59127;SDS011;44912;52.754;5.994;2023-08-24T03:37:24;11.95;;;6.55;;
59127;SDS011;44912;52.754;5.994;2023-08-24T03:39:50;12.05;;;6.68;;
59127;SDS011;44912;52.754;5.994;2023-08-24T03:42:15;10.68;;;6.65;;
59127;SDS011;44912;52.754;5.994;2023-08-24T03:44:41;10.50;;;7.18;;
59127;SDS011;44912;52.754;5.994;2023-08-24T03:47:06;12.32;;;7.43;;
59127;SDS011;44912;52.754;5.994;2023-08-24T03:49:32;14.15;;;7.60;;
59127;SDS011;44912;52.754;5.994;2023-08-24T03:51:57;10.85;;;7.30;;
59127;SDS011;44912;52.754;5.994;2023-08-24T03:54:23;10.90;;;7.00;;
59127;SDS011;44912;52.754;5.994;2023-08-24T03:56:48;13.95;;;7.50;;
59127;SDS011;44912;52.754;5.994;2023-08-24T03:59:14;10.68;;;6.70;;
59127;SDS011;44912;52.754;5.994;2023-08-24T04:01:39;10.98;;;6.93;;
59127;SDS011;44912;52.754;5.994;2023-08-24T04:04:05;11.60;;;6.85;;
59127;SDS011;44912;52.754;5.994;2023-08-24T04:06:30;12.65;;;7.05;;
59127;SDS011;44912;52.754;5.994;2023-08-24T04:08:56;10.90;;;6.82;;
59127;SDS011;44912;52.754;5.994;2023-08-24T04:11:21;12.05;;;6.53;;
59127;SDS011;44912;52.754;5.994;2023-08-24T04:13:47;9.00;;;6.50;;
59127;SDS011;44912;52.754;5.994;2023-08-24T04:16:12;10.93;;;6.53;;
59127;SDS011;44912;52.754;5.994;2023-08-24T04:18:38;11.68;;;6.70;;
59127;SDS011;44912;52.754;5.994;2023-08-24T04:21:05;10.48;;;7.15;;
59127;SDS011;44912;52.754;5.994;2023-08-24T04:23:31;10.60;;;6.45;;
59127;SDS011;44912;52.754;5.994;2023-08-24T04:25:56;12.02;;;6.70;;
59127;SDS011;44912;52.754;5.994;2023-08-24T04:28:22;12.45;;;7.25;;
59127;SDS011;44912;52.754;5.994;2023-08-24T04:30:51;10.88;;;7.22;;
59127;SDS011;44912;52.754;5.994;2023-08-24T04:33:19;11.95;;;6.82;;
59127;SDS011;44912;52.754;5.994;2023-08-24T04:35:48;11.88;;;7.38;;
59127;SDS011;44912;52.754;5.994;2023-08-24T04:38:15;10.70;;;6.68;;
59127;SDS011;44912;52.754;5.994;2023-08-24T04:40:59;13.73;;;7.82;;
59127;SDS011;44912;52.754;5.994;2023-08-24T04:43:25;11.48;;;7.22;;
59127;SDS011;44912;52.754;5.994;2023-08-24T04:45:51;11.85;;;7.63;;
59127;SDS011;44912;52.754;5.994;2023-08-24T04:48:18;10.85;;;7.22;;
59127;SDS011;44912;52.754;5.994;2023-08-24T04:50:48;12.07;;;7.95;;
59127;SDS011;44912;52.754;5.994;2023-08-24T04:53:15;12.93;;;8.63;;
59127;SDS011;44912;52.754;5.994;2023-08-24T04:55:42;11.25;;;7.65;;
59127;SDS011;44912;52.754;5.994;2023-08-24T04:58:08;14.52;;;8.07;;
59127;SDS011;44912;52.754;5.994;2023-08-24T05:00:34;13.77;;;8.45;;
59127;SDS011;44912;52.754;5.994;2023-08-24T05:03:06;13.93;;;9.00;;
59127;SDS011;44912;52.754;5.994;2023-08-24T05:05:32;10.27;;;7.97;;
59127;SDS011;44912;52.754;5.994;2023-08-24T05:07:59;12.88;;;8.27;;
59127;SDS011;44912;52.754;5.994;2023-08-24T05:10:29;13.75;;;8.98;;
59127;SDS011;44912;52.754;5.994;2023-08-24T05:12:55;13.80;;;9.15;;
59127;SDS011;44912;52.754;5.994;2023-08-24T05:15:21;12.27;;;8.45;;
59127;SDS011;44912;52.754;5.994;2023-08-24T05:17:46;13.25;;;9.80;;
59127;SDS011;44912;52.754;5.994;2023-08-24T05:20:12;12.50;;;8.55;;
59127;SDS011;44912;52.754;5.994;2023-08-24T05:22:38;13.02;;;8.63;;
59127;SDS011;44912;52.754;5.994;2023-08-24T05:25:03;13.38;;;9.13;;
59127;SDS011;44912;52.754;5.994;2023-08-24T05:27:30;15.30;;;8.85;;
59127;SDS011;44912;52.754;5.994;2023-08-24T05:29:55;12.88;;;9.13;;
59127;SDS011;44912;52.754;5.994;2023-08-24T05:32:21;14.70;;;9.75;;
59127;SDS011;44912;52.754;5.994;2023-08-24T05:34:47;16.10;;;9.27;;
59127;SDS011;44912;52.754;5.994;2023-08-24T05:37:12;15.88;;;9.55;;
59127;SDS011;44912;52.754;5.994;2023-08-24T05:39:38;14.20;;;9.65;;
59127;SDS011;44912;52.754;5.994;2023-08-24T05:42:04;13.38;;;8.70;;
59127;SDS011;44912;52.754;5.994;2023-08-24T05:44:30;14.80;;;9.70;;
59127;SDS011;44912;52.754;5.994;2023-08-24T05:46:55;12.90;;;9.55;;
59127;SDS011;44912;52.754;5.994;2023-08-24T05:49:21;13.43;;;8.63;;
59127;SDS011;44912;52.754;5.994;2023-08-24T05:51:46;16.40;;;9.32;;
59127;SDS011;44912;52.754;5.994;2023-08-24T05:54:14;14.02;;;9.32;;
59127;SDS011;44912;52.754;5.994;2023-08-24T05:56:43;15.80;;;9.10;;
59127;SDS011;44912;52.754;5.994;2023-08-24T05:59:12;13.32;;;8.95;;
59127;SDS011;44912;52.754;5.994;2023-08-24T06:01:38;13.38;;;9.57;;
59127;SDS011;44912;52.754;5.994;2023-08-24T06:04:07;13.45;;;8.73;;
59127;SDS011;44912;52.754;5.994;2023-08-24T06:06:34;14.85;;;9.07;;
59127;SDS011;44912;52.754;5.994;2023-08-24T06:09:00;13.80;;;9.20;;
59127;SDS011;44912;52.754;5.994;2023-08-24T06:11:26;13.32;;;8.75;;
59127;SDS011;44912;52.754;5.994;2023-08-24T06:13:51;11.65;;;7.95;;
59127;SDS011;44912;52.754;5.994;2023-08-24T06:16:18;12.07;;;8.32;;
59127;SDS011;44912;52.754;5.994;2023-08-24T06:18:44;14.25;;;9.02;;
59127;SDS011;44912;52.754;5.994;2023-08-24T06:21:10;15.50;;;8.48;;
59127;SDS011;44912;52.754;5.994;2023-08-24T06:23:35;11.73;;;7.75;;
59127;SDS011;44912;52.754;5.994;2023-08-24T06:26:01;14.13;;;8.13;;
59127;SDS011;44912;52.754;5.994;2023-08-24T06:28:27;12.70;;;8.25;;
59127;SDS011;44912;52.754;5.994;2023-08-24T06:30:52;13.48;;;7.85;;
59127;SDS011;44912;52.754;5.994;2023-08-24T06:33:20;13.27;;;8.57;;
59127;SDS011;44912;52.754;5.994;2023-08-24T06:35:46;12.40;;;8.05;;
59127;SDS011;44912;52.754;5.994;2023-08-24T06:38:12;10.93;;;7.40;;
59127;SDS011;44912;52.754;5.994;2023-08-24T06:40:38;11.77;;;8.20;;
59127;SDS011;44912;52.754;5.994;2023-08-24T06:43:04;11.20;;;8.02;;
59127;SDS011;44912;52.754;5.994;2023-08-24T06:45:30;13.30;;;8.48;;
59127;SDS011;44912;52.754;5.994;2023-08-24T06:47:56;14.23;;;7.38;;
59127;SDS011;44912;52.754;5.994;2023-08-24T06:50:21;12.43;;;8.13;;
59127;SDS011;44912;52.754;5.994;2023-08-24T06:52:47;12.60;;;8.10;;
59127;SDS011;44912;52.754;5.994;2023-08-24T06:55:13;14.40;;;7.80;;
59127;SDS011;44912;52.754;5.994;2023-08-24T06:57:38;12.10;;;8.82;;
59127;SDS011;44912;52.754;5.994;2023-08-24T07:00:04;11.55;;;8.02;;
59127;SDS011;44912;52.754;5.994;2023-08-24T07:02:32;11.60;;;7.82;;
59127;SDS011;44912;52.754;5.994;2023-08-24T07:04:58;13.38;;;9.00;;
59127;SDS011;44912;52.754;5.994;2023-08-24T07:07:24;18.23;;;9.18;;
59127;SDS011;44912;52.754;5.994;2023-08-24T07:09:50;13.15;;;8.77;;
59127;SDS011;44912;52.754;5.994;2023-08-24T07:12:16;13.20;;;8.93;;
59127;SDS011;44912;52.754;5.994;2023-08-24T07:14:41;11.15;;;8.65;;
59127;SDS011;44912;52.754;5.994;2023-08-24T07:17:07;13.73;;;9.20;;
59127;SDS011;44912;52.754;5.994;2023-08-24T07:19:32;13.43;;;8.65;;
59127;SDS011;44912;52.754;5.994;2023-08-24T07:21:58;12.88;;;8.73;;
59127;SDS011;44912;52.754;5.994;2023-08-24T07:24:24;12.88;;;8.52;;
59127;SDS011;44912;52.754;5.994;2023-08-24T07:26:53;14.30;;;9.05;;
59127;SDS011;44912;52.754;5.994;2023-08-24T07:29:20;13.35;;;9.77;;
59127;SDS011;44912;52.754;5.994;2023-08-24T07:31:46;12.63;;;8.60;;
59127;SDS011;44912;52.754;5.994;2023-08-24T07:34:12;13.27;;;8.35;;
59127;SDS011;44912;52.754;5.994;2023-08-24T07:36:38;12.40;;;8.93;;
59127;SDS011;44912;52.754;5.994;2023-08-24T07:39:03;13.63;;;8.80;;
59127;SDS011;44912;52.754;5.994;2023-08-24T07:41:29;12.65;;;8.20;;
59127;SDS011;44912;52.754;5.994;2023-08-24T07:43:55;12.32;;;7.97;;
59127;SDS011;44912;52.754;5.994;2023-08-24T07:46:20;14.90;;;8.40;;
59127;SDS011;44912;52.754;5.994;2023-08-24T07:48:46;14.38;;;8.65;;
59127;SDS011;44912;52.754;5.994;2023-08-24T07:51:12;12.95;;;8.90;;
59127;SDS011;44912;52.754;5.994;2023-08-24T07:53:37;12.27;;;8.50;;
59127;SDS011;44912;52.754;5.994;2023-08-24T07:56:03;12.05;;;8.27;;
59127;SDS011;44912;52.754;5.994;2023-08-24T07:58:29;14.15;;;8.20;;
59127;SDS011;44912;52.754;5.994;2023-08-24T08:00:56;14.02;;;8.80;;
59127;SDS011;44912;52.754;5.994;2023-08-24T08:03:22;13.23;;;8.90;;
59127;SDS011;44912;52.754;5.994;2023-08-24T08:05:47;12.05;;;8.70;;
59127;SDS011;44912;52.754;5.994;2023-08-24T08:08:13;15.25;;;9.07;;
59127;SDS011;44912;52.754;5.994;2023-08-24T08:10:39;13.45;;;8.82;;
59127;SDS011;44912;52.754;5.994;2023-08-24T08:13:06;12.35;;;8.25;;
59127;SDS011;44912;52.754;5.994;2023-08-24T08:15:31;11.20;;;8.73;;
59127;SDS011;44912;52.754;5.994;2023-08-24T08:17:57;12.50;;;8.50;;
59127;SDS011;44912;52.754;5.994;2023-08-24T08:20:23;12.70;;;8.18;;
59127;SDS011;44912;52.754;5.994;2023-08-24T08:22:48;13.95;;;8.40;;
59127;SDS011;44912;52.754;5.994;2023-08-24T08:25:15;13.38;;;8.68;;
59127;SDS011;44912;52.754;5.994;2023-08-24T08:27:43;11.25;;;7.70;;
59127;SDS011;44912;52.754;5.994;2023-08-24T08:30:09;12.63;;;7.75;;
59127;SDS011;44912;52.754;5.994;2023-08-24T08:32:35;12.70;;;8.65;;
59127;SDS011;44912;52.754;5.994;2023-08-24T08:35:00;13.20;;;8.57;;
59127;SDS011;44912;52.754;5.994;2023-08-24T08:37:26;12.55;;;7.90;;
59127;SDS011;44912;52.754;5.994;2023-08-24T08:39:52;12.60;;;8.02;;
59127;SDS011;44912;52.754;5.994;2023-08-24T08:42:18;11.85;;;7.38;;
59127;SDS011;44912;52.754;5.994;2023-08-24T08:44:44;15.55;;;8.10;;
59127;SDS011;44912;52.754;5.994;2023-08-24T08:47:11;11.32;;;7.65;;
59127;SDS011;44912;52.754;5.994;2023-08-24T08:49:38;10.63;;;7.95;;
59127;SDS011;44912;52.754;5.994;2023-08-24T08:52:05;11.32;;;7.80;;
59127;SDS011;44912;52.754;5.994;2023-08-24T08:54:31;12.23;;;7.53;;
59127;SDS011;44912;52.754;5.994;2023-08-24T08:56:58;13.02;;;7.82;;
59127;SDS011;44912;52.754;5.994;2023-08-24T08:59:24;12.40;;;8.82;;
59127;SDS011;44912;52.754;5.994;2023-08-24T09:01:54;15.18;;;8.25;;
59127;SDS011;44912;52.754;5.994;2023-08-24T09:04:22;12.40;;;7.95;;
59127;SDS011;44912;52.754;5.994;2023-08-24T09:06:48;13.40;;;7.75;;
59127;SDS011;44912;52.754;5.994;2023-08-24T09:09:14;13.23;;;8.55;;
59127;SDS011;44912;52.754;5.994;2023-08-24T09:11:40;12.95;;;8.40;;
59127;SDS011;44912;52.754;5.994;2023-08-24T09:14:07;12.20;;;7.85;;
59127;SDS011;44912;52.754;5.994;2023-08-24T09:16:32;11.30;;;8.40;;
59127;SDS011;44912;52.754;5.994;2023-08-24T09:18:59;13.27;;;7.88;;
59127;SDS011;44912;52.754;5.994;2023-08-24T09:21:29;11.75;;;7.82;;
59127;SDS011;44912;52.754;5.994;2023-08-24T09:23:55;10.95;;;7.88;;
59127;SDS011;44912;52.754;5.994;2023-08-24T09:26:30;12.63;;;8.20;;
59127;SDS011;44912;52.754;5.994;2023-08-24T09:28:59;13.90;;;8.20;;
59127;SDS011;44912;52.754;5.994;2023-08-24T09:31:35;12.55;;;7.90;;
59127;SDS011;44912;52.754;5.994;2023-08-24T09:34:04;12.57;;;7.93;;
59127;SDS011;44912;52.754;5.994;2023-08-24T09:36:33;12.82;;;7.90;;
59127;SDS011;44912;52.754;5.994;2023-08-24T09:39:00;11.52;;;7.80;;
59127;SDS011;44912;52.754;5.994;2023-08-24T09:41:39;11.35;;;7.60;;
59127;SDS011;44912;52.754;5.994;2023-08-24T09:44:06;13.32;;;8.63;;
59127;SDS011;44912;52.754;5.994;2023-08-24T09:46:32;12.48;;;8.23;;
59127;SDS011;44912;52.754;5.994;2023-08-24T09:48:58;14.95;;;9.38;;
59127;SDS011;44912;52.754;5.994;2023-08-24T09:51:28;14.30;;;10.05;;
59127;SDS011;44912;52.754;5.994;2023-08-24T09:53:57;13.18;;;9.35;;
59127;SDS011;44912;52.754;5.994;2023-08-24T09:56:25;13.35;;;8.98;;
59127;SDS011;44912;52.754;5.994;2023-08-24T09:58:53;11.18;;;8.70;;
59127;SDS011;44912;52.754;5.994;2023-08-24T10:01:20;14.23;;;9.55;;
59127;SDS011;44912;52.754;5.994;2023-08-24T10:03:50;13.90;;;9.40;;
59127;SDS011;44912;52.754;5.994;2023-08-24T10:06:23;13.77;;;9.57;;
59127;SDS011;44912;52.754;5.994;2023-08-24T10:08:53;13.68;;;9.88;;
59127;SDS011;44912;52.754;5.994;2023-08-24T10:11:25;13.02;;;9.15;;
59127;SDS011;44912;52.754;5.994;2023-08-24T10:13:54;13.13;;;8.82;;
59127;SDS011;44912;52.754;5.994;2023-08-24T10:16:29;15.00;;;9.55;;
59127;SDS011;44912;52.754;5.994;2023-08-24T10:18:55;13.02;;;8.98;;
59127;SDS011;44912;52.754;5.994;2023-08-24T10:21:21;14.32;;;9.57;;
59127;SDS011;44912;52.754;5.994;2023-08-24T10:23:50;12.23;;;9.23;;
59127;SDS011;44912;52.754;5.994;2023-08-24T10:26:17;11.80;;;9.10;;
59127;SDS011;44912;52.754;5.994;2023-08-24T10:28:44;13.38;;;9.20;;
59127;SDS011;44912;52.754;5.994;2023-08-24T10:31:11;14.23;;;9.88;;
59127;SDS011;44912;52.754;5.994;2023-08-24T10:33:37;13.23;;;9.13;;
59127;SDS011;44912;52.754;5.994;2023-08-24T10:36:04;13.75;;;9.52;;
59127;SDS011;44912;52.754;5.994;2023-08-24T10:38:31;13.05;;;9.43;;
59127;SDS011;44912;52.754;5.994;2023-08-24T10:41:03;14.25;;;11.10;;
59127;SDS011;44912;52.754;5.994;2023-08-24T10:43:30;15.93;;;10.65;;
59127;SDS011;44912;52.754;5.994;2023-08-24T10:46:00;15.07;;;10.70;;
59127;SDS011;44912;52.754;5.994;2023-08-24T10:48:27;14.93;;;10.65;;
59127;SDS011;44912;52.754;5.994;2023-08-24T10:53:39;15.77;;;11.65;;
59127;SDS011;44912;52.754;5.994;2023-08-24T10:56:12;13.85;;;11.32;;
59127;SDS011;44912;52.754;5.994;2023-08-24T10:58:38;14.45;;;11.82;;
59127;SDS011;44912;52.754;5.994;2023-08-24T11:01:04;16.25;;;12.45;;
59127;SDS011;44912;52.754;5.994;2023-08-24T11:03:33;16.83;;;12.23;;
59127;SDS011;44912;52.754;5.994;2023-08-24T11:05:59;16.38;;;11.98;;
59127;SDS011;44912;52.754;5.994;2023-08-24T11:11:22;16.13;;;13.38;;
59127;SDS011;44912;52.754;5.994;2023-08-24T11:16:47;17.85;;;13.40;;
59127;SDS011;44912;52.754;5.994;2023-08-24T11:19:14;17.02;;;14.40;;
59127;SDS011;44912;52.754;5.994;2023-08-24T11:21:41;15.70;;;13.30;;
59127;SDS011;44912;52.754;5.994;2023-08-24T11:24:11;17.88;;;13.35;;
59127;SDS011;44912;52.754;5.994;2023-08-24T11:26:46;17.92;;;15.00;;
59127;SDS011;44912;52.754;5.994;2023-08-24T11:29:13;17.88;;;14.93;;
59127;SDS011;44912;52.754;5.994;2023-08-24T11:31:40;20.38;;;14.85;;
59127;SDS011;44912;52.754;5.994;2023-08-24T11:34:06;18.80;;;13.85;;
59127;SDS011;44912;52.754;5.994;2023-08-24T11:39:27;16.98;;;14.00;;
59127;SDS011;44912;52.754;5.994;2023-08-24T11:44:29;19.77;;;14.60;;
59127;SDS011;44912;52.754;5.994;2023-08-24T11:47:09;15.82;;;13.32;;
59127;SDS011;44912;52.754;5.994;2023-08-24T11:49:35;16.50;;;13.05;;
59127;SDS011;44912;52.754;5.994;2023-08-24T11:52:00;19.27;;;13.50;;
59127;SDS011;44912;52.754;5.994;2023-08-24T11:54:27;17.35;;;13.23;;
59127;SDS011;44912;52.754;5.994;2023-08-24T11:56:52;18.85;;;14.32;;
59127;SDS011;44912;52.754;5.994;2023-08-24T11:59:18;15.88;;;13.45;;
59127;SDS011;44912;52.754;5.994;2023-08-24T12:01:44;17.13;;;14.73;;
59127;SDS011;44912;52.754;5.994;2023-08-24T12:04:11;17.00;;;14.80;;
59127;SDS011;44912;52.754;5.994;2023-08-24T12:06:37;16.35;;;14.10;;
59127;SDS011;44912;52.754;5.994;2023-08-24T12:09:05;18.70;;;14.65;;
59127;SDS011;44912;52.754;5.994;2023-08-24T12:11:34;20.75;;;15.25;;
59127;SDS011;44912;52.754;5.994;2023-08-24T12:14:01;16.15;;;14.20;;
59127;SDS011;44912;52.754;5.994;2023-08-24T12:16:26;18.23;;;14.57;;
59127;SDS011;44912;52.754;5.994;2023-08-24T12:18:56;16.00;;;14.20;;
59127;SDS011;44912;52.754;5.994;2023-08-24T12:21:24;17.48;;;14.07;;
59127;SDS011;44912;52.754;5.994;2023-08-24T12:24:01;17.48;;;15.00;;
59127;SDS011;44912;52.754;5.994;2023-08-24T12:26:31;19.08;;;14.23;;
59127;SDS011;44912;52.754;5.994;2023-08-24T12:29:03;16.80;;;15.00;;
59127;SDS011;44912;52.754;5.994;2023-08-24T12:31:30;16.88;;;14.30;;
59127;SDS011;44912;52.754;5.994;2023-08-24T12:36:25;20.13;;;17.10;;
59127;SDS011;44912;52.754;5.994;2023-08-24T12:38:51;20.70;;;16.23;;
59127;SDS011;44912;52.754;5.994;2023-08-24T12:41:17;19.35;;;16.65;;
59127;SDS011;44912;52.754;5.994;2023-08-24T12:43:43;19.83;;;16.77;;
59127;SDS011;44912;52.754;5.994;2023-08-24T12:46:08;21.45;;;17.45;;
59127;SDS011;44912;52.754;5.994;2023-08-24T12:48:34;21.67;;;17.45;;
59127;SDS011;44912;52.754;5.994;2023-08-24T12:51:00;20.55;;;16.48;;
59127;SDS011;44912;52.754;5.994;2023-08-24T12:53:25;21.48;;;17.95;;
59127;SDS011;44912;52.754;5.994;2023-08-24T12:55:51;22.48;;;18.35;;
59127;SDS011;44912;52.754;5.994;2023-08-24T12:58:16;19.60;;;17.50;;
59127;SDS011;44912;52.754;5.994;2023-08-24T13:00:43;19.98;;;17.88;;
59127;SDS011;44912;52.754;5.994;2023-08-24T13:03:09;20.48;;;16.23;;
59127;SDS011;44912;52.754;5.994;2023-08-24T13:05:36;20.20;;;17.38;;
59127;SDS011;44912;52.754;5.994;2023-08-24T13:08:01;18.52;;;15.82;;
59127;SDS011;44912;52.754;5.994;2023-08-24T13:10:27;16.73;;;14.40;;
59127;SDS011;44912;52.754;5.994;2023-08-24T13:12:53;17.50;;;15.32;;
59127;SDS011;44912;52.754;5.994;2023-08-24T13:15:18;16.63;;;13.52;;
59127;SDS011;44912;52.754;5.994;2023-08-24T13:17:45;16.15;;;13.63;;
59127;SDS011;44912;52.754;5.994;2023-08-24T13:20:10;15.25;;;12.93;;
59127;SDS011;44912;52.754;5.994;2023-08-24T13:22:36;16.70;;;11.77;;
59127;SDS011;44912;52.754;5.994;2023-08-24T13:25:01;14.52;;;11.90;;
59127;SDS011;44912;52.754;5.994;2023-08-24T13:27:27;13.00;;;11.20;;
59127;SDS011;44912;52.754;5.994;2023-08-24T13:29:53;13.95;;;10.07;;
59127;SDS011;44912;52.754;5.994;2023-08-24T13:32:21;13.82;;;10.82;;
59127;SDS011;44912;52.754;5.994;2023-08-24T13:34:47;13.88;;;10.60;;
59127;SDS011;44912;52.754;5.994;2023-08-24T13:37:12;13.93;;;9.90;;
59127;SDS011;44912;52.754;5.994;2023-08-24T13:39:38;14.45;;;9.52;;
59127;SDS011;44912;52.754;5.994;2023-08-24T13:42:03;11.13;;;9.15;;
59127;SDS011;44912;52.754;5.994;2023-08-24T13:44:29;13.75;;;10.27;;
59127;SDS011;44912;52.754;5.994;2023-08-24T13:46:55;13.45;;;11.20;;
59127;SDS011;44912;52.754;5.994;2023-08-24T13:49:20;12.95;;;10.65;;
59127;SDS011;44912;52.754;5.994;2023-08-24T13:51:46;16.15;;;11.43;;
59127;SDS011;44912;52.754;5.994;2023-08-24T13:54:18;12.52;;;10.13;;
59127;SDS011;44912;52.754;5.994;2023-08-24T13:56:46;13.50;;;11.80;;
59127;SDS011;44912;52.754;5.994;2023-08-24T13:59:12;14.57;;;11.27;;
59127;SDS011;44912;52.754;5.994;2023-08-24T14:01:38;13.73;;;11.60;;
59127;SDS011;44912;52.754;5.994;2023-08-24T14:04:04;14.50;;;11.27;;
59127;SDS011;44912;52.754;5.994;2023-08-24T14:06:30;12.88;;;10.82;;
59127;SDS011;44912;52.754;5.994;2023-08-24T14:08:59;14.13;;;10.30;;
59127;SDS011;44912;52.754;5.994;2023-08-24T14:11:27;14.57;;;11.05;;
59127;SDS011;44912;52.754;5.994;2023-08-24T14:13:53;16.05;;;11.23;;
59127;SDS011;44912;52.754;5.994;2023-08-24T14:16:19;14.02;;;10.85;;
59127;SDS011;44912;52.754;5.994;2023-08-24T14:18:45;13.93;;;11.30;;
59127;SDS011;44912;52.754;5.994;2023-08-24T14:21:10;13.88;;;11.27;;
59127;SDS011;44912;52.754;5.994;2023-08-24T14:23:36;13.50;;;10.85;;
59127;SDS011;44912;52.754;5.994;2023-08-24T14:26:02;12.43;;;10.50;;
59127;SDS011;44912;52.754;5.994;2023-08-24T14:28:46;12.57;;;10.30;;
59127;SDS011;44912;52.754;5.994;2023-08-24T14:31:13;12.57;;;10.82;;
59127;SDS011;44912;52.754;5.994;2023-08-24T14:33:38;12.98;;;10.82;;
59127;SDS011;44912;52.754;5.994;2023-08-24T14:36:04;14.00;;;11.45;;
59127;SDS011;44912;52.754;5.994;2023-08-24T14:38:30;15.02;;;11.68;;
59127;SDS011;44912;52.754;5.994;2023-08-24T14:40:55;15.43;;;11.95;;
59127;SDS011;44912;52.754;5.994;2023-08-24T14:43:21;16.02;;;12.77;;
59127;SDS011;44912;52.754;5.994;2023-08-24T14:45:46;14.57;;;12.20;;
59127;SDS011;44912;52.754;5.994;2023-08-24T14:48:13;14.32;;;11.60;;
59127;SDS011;44912;52.754;5.994;2023-08-24T14:50:39;16.77;;;12.95;;
59127;SDS011;44912;52.754;5.994;2023-08-24T14:53:04;15.05;;;12.65;;